Time;durP1;ratioP1;P1;durP2;ratioP2;P2;SDS_P1;SDS_P2;PMS_P1;PMS_P2;Temp;Humidity;BMP_temperature;BMP_pressure;BME280_temperature;BME280_humidity;BME280_pressure;Samples;Min_cycle;Max_cycle;Signal;HPM_P1;HPM_P2
2023/06/24 00:01:24;;;;;;;;;;;14.90;99.90;;;;;;5075118;28;19927;-74
2023/06/24 00:03:53;;;;;;;;;;;14.90;99.90;;;;;;5091317;28;19920;-75
2023/06/24 00:06:22;;;;;;;;;;;14.90;99.90;;;;;;5091267;28;20445;-74
2023/06/24 00:08:48;;;;;;;;;;;14.80;99.90;;;;;;5091422;28;19919;-76
2023/06/24 00:11:14;;;;;;;;;;;14.80;99.90;;;;;;5074120;28;19928;-77
2023/06/24 00:13:40;;;;;;;;;;;14.80;99.90;;;;;;5074494;28;19928;-75
2023/06/24 00:16:06;;;;;;;;;;;14.80;99.90;;;;;;5074600;28;19928;-75
2023/06/24 00:18:35;;;;;;;;;;;14.70;99.90;;;;;;5091171;28;19916;-74
2023/06/24 00:21:02;;;;;;;;;;;14.70;99.90;;;;;;5091220;28;20624;-77
2023/06/24 00:23:28;;;;;;;;;;;14.70;99.90;;;;;;5091270;28;20003;-76
2023/06/24 00:25:54;;;;;;;;;;;14.70;99.90;;;;;;5091025;28;19920;-74
2023/06/24 00:28:20;;;;;;;;;;;14.70;99.90;;;;;;5090706;28;19963;-75
2023/06/24 00:30:46;;;;;;;;;;;14.60;99.90;;;;;;5090748;28;19963;-76
2023/06/24 00:33:13;;;;;;;;;;;14.60;99.90;;;;;;5090557;28;19966;-76
2023/06/24 00:35:42;;;;;;;;;;;14.60;99.90;;;;;;5090906;28;20002;-75
2023/06/24 00:38:08;;;;;;;;;;;14.60;99.90;;;;;;5090823;28;20308;-74
2023/06/24 00:40:34;;;;;;;;;;;14.50;99.90;;;;;;5090748;28;19920;-74
2023/06/24 00:43:01;;;;;;;;;;;14.50;99.90;;;;;;5090951;28;19916;-76
2023/06/24 00:45:27;;;;;;;;;;;14.50;99.90;;;;;;5090920;28;20385;-75
2023/06/24 00:47:54;;;;;;;;;;;14.50;99.90;;;;;;5091061;28;19916;-77
2023/06/24 00:50:20;;;;;;;;;;;14.50;99.90;;;;;;5124095;27;20397;-75
2023/06/24 00:52:45;;;;;;;;;;;14.40;99.90;;;;;;5124405;27;19927;-75
2023/06/24 00:55:12;;;;;;;;;;;14.40;99.90;;;;;;5124201;27;19920;-75
2023/06/24 00:57:39;;;;;;;;;;;14.40;99.90;;;;;;5107411;28;19916;-75
2023/06/24 01:00:09;;;;;;;;;;;14.30;99.90;;;;;;5089830;28;20377;-76
2023/06/24 01:02:36;;;;;;;;;;;14.30;99.90;;;;;;5090355;28;19919;-76
2023/06/24 01:05:03;;;;;;;;;;;14.30;99.90;;;;;;5090091;28;19993;-77
2023/06/24 01:07:29;;;;;;;;;;;14.20;99.90;;;;;;5090632;28;19916;-74
2023/06/24 01:09:55;;;;;;;;;;;14.20;99.90;;;;;;5090225;28;19919;-75
2023/06/24 01:12:21;;;;;;;;;;;14.20;99.90;;;;;;5089452;28;20019;-75
2023/06/24 01:14:46;;;;;;;;;;;14.20;99.90;;;;;;5123725;27;20332;-75
2023/06/24 01:17:14;;;;;;;;;;;14.20;99.90;;;;;;5123625;27;19920;-75
2023/06/24 01:19:40;;;;;;;;;;;14.20;99.90;;;;;;5073346;28;20550;-74
2023/06/24 01:22:11;;;;;;;;;;;14.10;99.90;;;;;;5089537;28;19964;-74
2023/06/24 01:24:39;;;;;;;;;;;14.10;99.90;;;;;;5090144;28;19915;-76
2023/06/24 01:27:19;;;;;;;;;;;14.10;99.90;;;;;;5120292;27;19920;-74
2023/06/24 01:29:53;;;;;;;;;;;14.10;99.90;;;;;;5069908;28;19970;-74
2023/06/24 01:32:36;;;;;;;;;;;14.10;99.90;;;;;;5069899;28;19927;-75
2023/06/24 01:35:11;;;;;;;;;;;14.10;99.90;;;;;;5103898;28;19931;-77
2023/06/24 01:37:41;;;;;;;;;;;14.00;99.90;;;;;;5069644;28;20437;-76
2023/06/24 01:40:20;;;;;;;;;;;14.10;99.90;;;;;;5102869;28;19920;-75
2023/06/24 01:42:47;;;;;;;;;;;14.00;99.90;;;;;;5069278;28;19920;-76
2023/06/24 01:45:14;;;;;;;;;;;14.00;99.90;;;;;;5069056;28;20018;-77
2023/06/24 01:47:45;;;;;;;;;;;14.00;99.90;;;;;;5103312;28;19945;-75
2023/06/24 01:50:11;;;;;;;;;;;14.00;99.90;;;;;;5106085;28;20027;-75
2023/06/24 01:52:38;;;;;;;;;;;14.00;99.90;;;;;;5089445;28;19936;-77
2023/06/24 01:55:06;;;;;;;;;;;14.10;99.90;;;;;;5089730;28;19920;-75
2023/06/24 01:57:32;;;;;;;;;;;14.00;99.90;;;;;;5089502;28;19995;-76
2023/06/24 01:59:58;;;;;;;;;;;14.00;99.90;;;;;;5106333;28;20377;-75
2023/06/24 02:02:25;;;;;;;;;;;14.00;99.90;;;;;;5089180;28;20310;-75
2023/06/24 02:04:52;;;;;;;;;;;14.00;99.90;;;;;;5089437;28;19928;-77
2023/06/24 02:07:20;;;;;;;;;;;14.00;99.90;;;;;;5123662;27;19938;-75
2023/06/24 02:09:45;;;;;;;;;;;14.00;99.90;;;;;;5089466;28;19916;-77
2023/06/24 02:12:11;;;;;;;;;;;14.00;99.90;;;;;;5088813;28;19931;-76
2023/06/24 02:14:38;;;;;;;;;;;14.00;99.90;;;;;;5089132;28;19966;-77
2023/06/24 02:17:05;;;;;;;;;;;14.00;99.90;;;;;;5089222;28;19979;-75
2023/06/24 02:19:31;;;;;;;;;;;14.00;99.90;;;;;;5088989;28;19973;-75
2023/06/24 02:21:57;;;;;;;;;;;14.00;99.90;;;;;;5089351;28;19916;-77
2023/06/24 02:24:23;;;;;;;;;;;14.00;99.90;;;;;;5088938;28;20350;-77
2023/06/24 02:26:49;;;;;;;;;;;14.00;99.90;;;;;;5090559;28;20008;-76
2023/06/24 02:29:15;;;;;;;;;;;14.10;99.90;;;;;;5092835;28;19961;-76
2023/06/24 02:31:40;;;;;;;;;;;14.10;99.90;;;;;;5092720;28;20001;-77
2023/06/24 02:34:06;;;;;;;;;;;14.00;99.90;;;;;;5092870;28;20395;-77
2023/06/24 02:36:31;;;;;;;;;;;14.00;99.90;;;;;;5092518;28;19941;-74
2023/06/24 02:38:57;;;;;;;;;;;14.10;99.90;;;;;;5093177;28;19919;-77
2023/06/24 02:41:22;;;;;;;;;;;14.10;99.90;;;;;;5126664;27;20020;-77
2023/06/24 02:43:48;;;;;;;;;;;14.10;99.90;;;;;;5092834;28;19926;-75
2023/06/24 02:46:15;;;;;;;;;;;14.10;99.90;;;;;;5092689;28;19916;-76
2023/06/24 02:48:41;;;;;;;;;;;14.00;99.90;;;;;;5092975;28;19920;-76
2023/06/24 02:51:07;;;;;;;;;;;14.10;99.90;;;;;;5075594;28;20031;-76
2023/06/24 02:53:33;;;;;;;;;;;14.00;99.90;;;;;;5075126;28;19974;-76
2023/06/24 02:55:58;;;;;;;;;;;14.00;99.90;;;;;;5092614;28;20402;-78
2023/06/24 02:58:27;;;;;;;;;;;14.10;99.90;;;;;;5092097;28;19916;-77
2023/06/24 03:00:52;;;;;;;;;;;14.10;99.90;;;;;;5075068;28;20089;-77
2023/06/24 03:03:18;;;;;;;;;;;14.10;99.90;;;;;;5091717;28;20002;-76
2023/06/24 03:05:44;;;;;;;;;;;14.10;99.90;;;;;;5091933;28;19961;-76
2023/06/24 03:08:10;;;;;;;;;;;14.10;99.90;;;;;;5091780;28;19916;-76
2023/06/24 03:10:36;;;;;;;;;;;14.10;99.90;;;;;;5091831;28;19920;-78
2023/06/24 03:13:02;;;;;;;;;;;14.10;99.90;;;;;;5091923;28;19947;-75
2023/06/24 03:15:28;;;;;;;;;;;14.10;99.90;;;;;;5092326;28;20610;-77
2023/06/24 03:17:54;;;;;;;;;;;14.10;99.90;;;;;;5093033;28;19920;-76
2023/06/24 03:20:20;;;;;;;;;;;14.10;99.90;;;;;;5092442;28;20379;-76
2023/06/24 03:22:45;;;;;;;;;;;14.00;99.90;;;;;;5092907;28;19970;-76
2023/06/24 03:25:11;;;;;;;;;;;14.10;99.90;;;;;;5092672;28;19967;-77
2023/06/24 03:27:36;;;;;;;;;;;14.10;99.90;;;;;;5058387;28;19916;-78
2023/06/24 03:30:02;;;;;;;;;;;14.10;99.90;;;;;;5092650;28;20075;-77
2023/06/24 03:32:28;;;;;;;;;;;14.10;99.90;;;;;;5092124;28;19933;-76
2023/06/24 03:34:55;;;;;;;;;;;14.10;99.90;;;;;;5092469;28;19952;-77
2023/06/24 03:37:20;;;;;;;;;;;14.20;99.90;;;;;;5058521;28;19994;-76
2023/06/24 03:39:46;;;;;;;;;;;14.20;99.90;;;;;;5091295;28;19984;-76
2023/06/24 03:42:12;;;;;;;;;;;14.20;99.90;;;;;;5092452;28;19985;-76
2023/06/24 03:44:37;;;;;;;;;;;14.20;99.90;;;;;;5091824;28;19920;-76
2023/06/24 03:47:03;;;;;;;;;;;14.30;99.90;;;;;;5075202;28;19960;-77
2023/06/24 03:49:29;;;;;;;;;;;14.40;99.90;;;;;;5091620;28;19967;-76
2023/06/24 03:51:54;;;;;;;;;;;14.40;99.90;;;;;;5092520;28;19926;-75
2023/06/24 03:54:20;;;;;;;;;;;14.40;99.90;;;;;;5091392;28;19920;-74
2023/06/24 03:56:45;;;;;;;;;;;14.50;99.90;;;;;;5091990;28;19924;-78
2023/06/24 03:59:12;;;;;;;;;;;14.50;99.90;;;;;;5091497;28;19977;-77
2023/06/24 04:01:38;;;;;;;;;;;14.60;99.90;;;;;;5091644;28;19993;-77
2023/06/24 04:04:04;;;;;;;;;;;14.50;99.90;;;;;;5074726;28;19959;-76
2023/06/24 04:06:29;;;;;;;;;;;14.60;99.90;;;;;;5091040;28;20435;-77
2023/06/24 04:08:55;;;;;;;;;;;14.70;99.90;;;;;;5091660;28;19916;-77
2023/06/24 04:11:21;;;;;;;;;;;14.70;99.90;;;;;;5091604;28;20337;-77
2023/06/24 04:13:48;;;;;;;;;;;14.80;99.90;;;;;;5092177;28;19920;-77
2023/06/24 04:16:14;;;;;;;;;;;14.80;99.90;;;;;;5091573;28;19931;-77
2023/06/24 04:18:39;;;;;;;;;;;14.80;99.90;;;;;;5091444;28;20340;-79
2023/06/24 04:21:06;;;;;;;;;;;14.90;99.90;;;;;;5091582;28;20369;-77
2023/06/24 04:23:32;;;;;;;;;;;15.00;99.90;;;;;;5091113;28;20011;-78
2023/06/24 04:25:58;;;;;;;;;;;15.00;99.90;;;;;;5091774;28;20014;-76
2023/06/24 04:28:23;;;;;;;;;;;15.10;99.90;;;;;;5090851;28;19945;-76
2023/06/24 04:30:49;;;;;;;;;;;15.20;99.90;;;;;;5091220;28;19920;-76
2023/06/24 04:33:14;;;;;;;;;;;15.30;99.90;;;;;;5091195;28;19919;-78
2023/06/24 04:35:40;;;;;;;;;;;15.40;99.90;;;;;;5090576;28;19931;-77
2023/06/24 04:38:05;;;;;;;;;;;15.50;99.90;;;;;;5073867;28;19923;-77
2023/06/24 04:40:31;;;;;;;;;;;15.60;99.90;;;;;;5090841;28;19923;-76
2023/06/24 04:42:57;;;;;;;;;;;15.70;99.90;;;;;;5073749;28;19915;-77
2023/06/24 04:45:22;;;;;;;;;;;15.80;99.90;;;;;;5073352;28;19936;-76
2023/06/24 04:47:48;;;;;;;;;;;15.90;99.90;;;;;;5090623;28;19959;-77
2023/06/24 04:50:13;;;;;;;;;;;16.10;99.90;;;;;;5090127;28;19919;-77
2023/06/24 04:52:39;;;;;;;;;;;16.20;99.90;;;;;;5073384;28;20005;-77
2023/06/24 04:55:05;;;;;;;;;;;16.20;99.90;;;;;;5090616;28;19919;-79
2023/06/24 04:57:31;;;;;;;;;;;16.30;99.90;;;;;;5090362;28;20005;-79
2023/06/24 04:59:57;;;;;;;;;;;16.30;99.90;;;;;;5090406;28;19927;-75
2023/06/24 05:02:23;;;;;;;;;;;16.30;99.90;;;;;;5090431;28;20473;-76
2023/06/24 05:04:49;;;;;;;;;;;16.40;99.90;;;;;;5090024;28;19997;-77
2023/06/24 05:07:15;;;;;;;;;;;16.40;99.90;;;;;;5090124;28;19927;-77
2023/06/24 05:09:41;;;;;;;;;;;16.50;99.90;;;;;;5073161;28;19927;-77
2023/06/24 05:12:07;;;;;;;;;;;16.50;99.90;;;;;;5090200;28;19920;-78
2023/06/24 05:14:36;;;;;;;;;;;16.60;99.90;;;;;;5089651;28;19930;-75
2023/06/24 05:17:02;;;;;;;;;;;16.70;99.90;;;;;;5090957;28;19920;-78
2023/06/24 05:19:27;;;;;;;;;;;16.80;99.90;;;;;;5089634;28;19965;-76
2023/06/24 05:21:53;;;;;;;;;;;16.80;99.90;;;;;;5090240;28;19927;-76
2023/06/24 05:24:18;;;;;;;;;;;17.00;99.90;;;;;;5089995;28;19935;-77
2023/06/24 05:26:51;;;;;;;;;;;17.00;99.90;;;;;;5089945;28;19965;-77
2023/06/24 05:29:17;;;;;;;;;;;17.10;99.90;;;;;;5090120;28;19948;-77
2023/06/24 05:31:42;;;;;;;;;;;17.20;99.90;;;;;;5089536;28;20387;-79
2023/06/24 05:34:08;;;;;;;;;;;17.30;99.90;;;;;;5089968;28;19920;-77
2023/06/24 05:36:34;;;;;;;;;;;17.40;99.90;;;;;;5089481;28;19924;-76
2023/06/24 05:38:59;;;;;;;;;;;17.60;99.90;;;;;;5072922;28;19920;-76
2023/06/24 05:41:25;;;;;;;;;;;17.70;99.90;;;;;;5089878;28;19923;-76
2023/06/24 05:44:01;;;;;;;;;;;17.80;99.90;;;;;;5089949;28;19924;-76
2023/06/24 05:46:26;;;;;;;;;;;17.90;99.90;;;;;;5089662;28;19923;-77
2023/06/24 05:48:52;;;;;;;;;;;18.10;99.90;;;;;;5089649;28;19927;-76
2023/06/24 05:51:17;;;;;;;;;;;18.20;99.90;;;;;;5072462;28;19920;-76
2023/06/24 05:53:43;;;;;;;;;;;18.30;99.90;;;;;;5089701;28;20026;-76
2023/06/24 05:56:09;;;;;;;;;;;18.40;99.90;;;;;;5089607;28;19916;-78
2023/06/24 05:58:34;;;;;;;;;;;18.50;99.90;;;;;;5072810;28;19942;-77
2023/06/24 06:01:01;;;;;;;;;;;18.50;99.90;;;;;;5089612;28;20335;-77
2023/06/24 06:03:26;;;;;;;;;;;18.60;99.90;;;;;;5088972;28;19967;-76
2023/06/24 06:05:52;;;;;;;;;;;18.80;99.90;;;;;;5089999;28;19967;-77
2023/06/24 06:08:17;;;;;;;;;;;19.00;99.90;;;;;;5089416;28;20376;-76
2023/06/24 06:10:43;;;;;;;;;;;19.20;99.90;;;;;;5089122;28;19924;-78
2023/06/24 06:13:08;;;;;;;;;;;19.40;99.90;;;;;;5089695;28;19920;-79
2023/06/24 06:15:34;;;;;;;;;;;19.60;99.90;;;;;;5088896;28;20006;-76
2023/06/24 06:18:00;;;;;;;;;;;19.90;99.90;;;;;;5089046;28;19969;-77
2023/06/24 06:20:25;;;;;;;;;;;20.20;99.90;;;;;;5089455;28;19967;-78
2023/06/24 06:22:51;;;;;;;;;;;20.40;99.90;;;;;;5089701;28;19920;-75
2023/06/24 06:25:16;;;;;;;;;;;20.50;99.90;;;;;;5089368;28;19937;-78
2023/06/24 06:27:42;;;;;;;;;;;20.60;99.90;;;;;;5088814;28;19916;-77
2023/06/24 06:30:08;;;;;;;;;;;20.70;99.90;;;;;;5072420;28;19916;-77
2023/06/24 06:32:33;;;;;;;;;;;20.80;99.90;;;;;;5071672;28;19956;-77
2023/06/24 06:34:59;;;;;;;;;;;21.00;99.90;;;;;;5072037;28;19928;-76
2023/06/24 06:37:24;;;;;;;;;;;21.10;99.90;;;;;;5089020;28;20326;-77
2023/06/24 06:39:50;;;;;;;;;;;21.10;99.90;;;;;;5091816;28;19920;-76
2023/06/24 06:42:16;;;;;;;;;;;21.20;99.90;;;;;;5072908;28;19924;-78
2023/06/24 06:44:41;;;;;;;;;;;21.30;99.90;;;;;;5089562;28;19920;-76
2023/06/24 06:47:07;;;;;;;;;;;21.40;99.90;;;;;;5088684;28;19916;-77
2023/06/24 06:49:32;;;;;;;;;;;21.50;99.90;;;;;;5071406;28;19927;-79
2023/06/24 06:51:58;;;;;;;;;;;21.70;99.90;;;;;;5089219;28;19916;-78
2023/06/24 06:54:23;;;;;;;;;;;21.70;99.90;;;;;;5072282;28;20361;-78
2023/06/24 06:56:49;;;;;;;;;;;21.80;99.90;;;;;;5088851;28;20034;-77
2023/06/24 06:59:15;;;;;;;;;;;22.00;99.90;;;;;;5088655;28;19966;-76
2023/06/24 07:01:40;;;;;;;;;;;22.20;99.90;;;;;;5088564;28;19927;-76
2023/06/24 07:04:06;;;;;;;;;;;22.30;99.90;;;;;;5088796;28;19997;-76
2023/06/24 07:06:32;;;;;;;;;;;22.30;99.90;;;;;;5088622;28;19942;-76
2023/06/24 07:08:58;;;;;;;;;;;22.40;99.90;;;;;;5088901;28;19927;-77
2023/06/24 07:11:23;;;;;;;;;;;22.50;99.90;;;;;;5072186;28;19916;-75
2023/06/24 07:13:51;;;;;;;;;;;22.60;99.90;;;;;;5089482;28;20419;-76
2023/06/24 07:16:17;;;;;;;;;;;22.60;99.90;;;;;;5092701;28;20679;-78
2023/06/24 07:18:42;;;;;;;;;;;22.70;99.90;;;;;;5092642;28;19915;-78
2023/06/24 07:21:08;;;;;;;;;;;22.70;99.90;;;;;;5093048;28;19942;-78
2023/06/24 07:23:33;;;;;;;;;;;22.80;99.90;;;;;;5092664;28;19958;-76
2023/06/24 07:25:59;;;;;;;;;;;22.90;99.90;;;;;;5093136;28;20265;-77
2023/06/24 07:28:25;;;;;;;;;;;22.90;99.90;;;;;;5093578;28;19966;-78
2023/06/24 07:30:50;;;;;;;;;;;23.00;99.90;;;;;;5092406;28;19920;-77
2023/06/24 07:33:16;;;;;;;;;;;23.00;99.90;;;;;;5075629;28;19920;-76
2023/06/24 07:35:42;;;;;;;;;;;23.10;99.90;;;;;;5092257;28;19924;-77
2023/06/24 07:38:07;;;;;;;;;;;23.20;99.90;;;;;;5093729;28;19927;-76
2023/06/24 07:40:33;;;;;;;;;;;23.40;99.90;;;;;;5092708;28;19974;-78
2023/06/24 07:42:58;;;;;;;;;;;23.50;99.90;;;;;;5092343;28;19920;-77
2023/06/24 07:45:25;;;;;;;;;;;23.80;99.90;;;;;;5092058;28;20361;-78
2023/06/24 07:47:51;;;;;;;;;;;23.90;99.90;;;;;;5091658;28;20015;-79
2023/06/24 07:50:16;;;;;;;;;;;24.10;99.90;;;;;;5091993;28;19991;-78
2023/06/24 07:52:42;;;;;;;;;;;24.30;99.90;;;;;;5091194;28;19923;-78
2023/06/24 07:55:07;;;;;;;;;;;24.50;99.90;;;;;;5091964;28;19930;-80
2023/06/24 07:57:33;;;;;;;;;;;24.80;99.90;;;;;;5091474;28;20420;-77
2023/06/24 07:59:58;;;;;;;;;;;24.90;99.90;;;;;;5091213;28;20065;-79
2023/06/24 08:02:24;;;;;;;;;;;25.00;99.90;;;;;;5091400;28;19920;-76
2023/06/24 08:04:50;;;;;;;;;;;25.20;99.90;;;;;;5074515;28;20011;-77
2023/06/24 08:07:16;;;;;;;;;;;25.30;99.90;;;;;;5108555;28;19923;-79
2023/06/24 08:09:42;;;;;;;;;;;25.40;99.90;;;;;;5074649;28;19919;-80
2023/06/24 08:12:08;;;;;;;;;;;25.50;99.90;;;;;;5091534;28;19926;-76
2023/06/24 08:14:33;;;;;;;;;;;25.50;99.90;;;;;;5108722;28;20357;-77
2023/06/24 08:16:59;;;;;;;;;;;25.40;99.90;;;;;;5091338;28;19923;-78
2023/06/24 08:19:24;;;;;;;;;;;25.50;99.90;;;;;;5074364;28;20379;-76
2023/06/24 08:21:50;;;;;;;;;;;25.50;99.90;;;;;;5074375;28;19934;-78
2023/06/24 08:24:15;;;;;;;;;;;25.40;99.90;;;;;;5073854;28;19919;-78
2023/06/24 08:26:41;;;;;;;;;;;25.50;99.90;;;;;;5091376;28;19920;-77
2023/06/24 08:29:07;;;;;;;;;;;25.50;99.90;;;;;;5091542;28;19965;-78
2023/06/24 08:31:33;;;;;;;;;;;25.50;99.90;;;;;;5092180;28;20430;-75
2023/06/24 08:34:08;;;;;;;;;;;25.60;99.90;;;;;;5090605;28;19973;-78
2023/06/24 08:36:33;;;;;;;;;;;25.60;99.90;;;;;;5090765;28;19928;-77
2023/06/24 08:38:59;;;;;;;;;;;25.50;99.90;;;;;;5091058;28;20376;-78
2023/06/24 08:41:24;;;;;;;;;;;25.20;99.90;;;;;;5073808;28;20335;-76
2023/06/24 08:43:50;;;;;;;;;;;25.10;99.90;;;;;;5073650;28;19959;-76
2023/06/24 08:46:17;;;;;;;;;;;25.20;99.90;;;;;;5090880;28;19955;-76
2023/06/24 08:48:44;;;;;;;;;;;25.40;99.90;;;;;;5090935;28;19924;-76
2023/06/24 08:51:11;;;;;;;;;;;25.50;99.90;;;;;;5073715;28;20360;-78
2023/06/24 08:53:37;;;;;;;;;;;25.50;99.90;;;;;;5091030;28;19969;-75
2023/06/24 08:56:04;;;;;;;;;;;25.70;99.90;;;;;;5090925;28;19924;-78
2023/06/24 08:58:29;;;;;;;;;;;25.70;99.30;;;;;;5090831;28;20272;-76
2023/06/24 09:00:55;;;;;;;;;;;25.70;99.90;;;;;;5090719;28;19916;-76
2023/06/24 09:03:21;;;;;;;;;;;25.80;99.90;;;;;;5074406;28;20246;-76
2023/06/24 09:05:48;;;;;;;;;;;25.90;99.30;;;;;;5090630;28;19923;-76
2023/06/24 09:08:18;;;;;;;;;;;26.10;98.50;;;;;;5090959;28;19970;-76
2023/06/24 09:10:43;;;;;;;;;;;26.20;98.30;;;;;;5090744;28;19923;-76
2023/06/24 09:13:09;;;;;;;;;;;26.20;98.20;;;;;;5091498;28;19930;-78
2023/06/24 09:15:36;;;;;;;;;;;26.20;97.30;;;;;;5091150;28;19920;-77
2023/06/24 09:18:03;;;;;;;;;;;26.10;96.90;;;;;;5090640;28;19921;-76
2023/06/24 09:20:30;;;;;;;;;;;26.00;97.00;;;;;;5091042;28;20296;-76
2023/06/24 09:22:59;;;;;;;;;;;25.90;96.90;;;;;;5091250;28;19916;-76
2023/06/24 09:25:25;;;;;;;;;;;25.80;96.70;;;;;;5090567;28;19964;-79
2023/06/24 09:27:55;;;;;;;;;;;25.70;97.10;;;;;;5090029;28;19969;-77
2023/06/24 09:30:22;;;;;;;;;;;25.70;98.00;;;;;;5091162;28;19915;-76
2023/06/24 09:32:48;;;;;;;;;;;25.60;97.90;;;;;;5090211;28;19919;-78
2023/06/24 09:35:14;;;;;;;;;;;25.60;97.30;;;;;;5073755;28;19986;-77
2023/06/24 09:37:39;;;;;;;;;;;25.40;96.70;;;;;;5089839;28;19959;-79
2023/06/24 09:40:06;;;;;;;;;;;25.40;97.40;;;;;;5057071;28;20046;-76
2023/06/24 09:42:32;;;;;;;;;;;25.50;97.60;;;;;;5090169;28;20408;-77
2023/06/24 09:44:57;;;;;;;;;;;25.50;97.40;;;;;;5090442;28;19998;-78
2023/06/24 09:47:27;;;;;;;;;;;25.60;96.50;;;;;;5090531;28;19923;-77
2023/06/24 09:49:53;;;;;;;;;;;25.60;97.40;;;;;;5089783;28;19916;-79
2023/06/24 09:52:20;;;;;;;;;;;25.80;97.20;;;;;;5089887;28;19920;-76
2023/06/24 09:54:50;;;;;;;;;;;26.00;96.90;;;;;;5090179;28;19920;-77
2023/06/24 09:57:17;;;;;;;;;;;26.10;96.10;;;;;;5073725;28;20459;-79
2023/06/24 09:59:45;;;;;;;;;;;26.20;95.40;;;;;;5090243;28;20327;-74
2023/06/24 10:02:12;;;;;;;;;;;26.20;94.70;;;;;;5090188;28;20006;-76
2023/06/24 10:04:38;;;;;;;;;;;26.10;94.80;;;;;;5090119;28;19923;-79
2023/06/24 10:07:04;;;;;;;;;;;26.20;95.30;;;;;;5089268;28;19919;-76
2023/06/24 10:09:29;;;;;;;;;;;26.30;95.20;;;;;;5090393;28;20620;-77
2023/06/24 10:11:55;;;;;;;;;;;26.50;95.30;;;;;;5089984;28;19916;-78
2023/06/24 10:14:20;;;;;;;;;;;26.70;95.30;;;;;;5089944;28;20430;-78
2023/06/24 10:16:46;;;;;;;;;;;26.90;93.90;;;;;;5090039;28;19926;-77
2023/06/24 10:19:18;;;;;;;;;;;27.00;94.10;;;;;;5090604;28;19923;-78
2023/06/24 10:21:54;;;;;;;;;;;27.00;93.80;;;;;;5091171;28;19974;-76
2023/06/24 10:24:30;;;;;;;;;;;27.10;93.50;;;;;;5090353;28;20523;-78
2023/06/24 10:26:59;;;;;;;;;;;27.20;92.90;;;;;;5089672;28;20003;-76
2023/06/24 10:29:35;;;;;;;;;;;27.30;92.60;;;;;;5089628;28;20010;-78
2023/06/24 10:32:08;;;;;;;;;;;27.30;92.40;;;;;;5089734;28;19916;-77
2023/06/24 10:34:34;;;;;;;;;;;27.50;92.70;;;;;;5073515;28;19998;-76
2023/06/24 10:37:09;;;;;;;;;;;27.80;91.50;;;;;;5072427;28;19927;-75
2023/06/24 10:39:38;;;;;;;;;;;27.70;91.00;;;;;;5089453;28;19973;-76
2023/06/24 10:42:18;;;;;;;;;;;27.50;90.90;;;;;;5089371;28;20693;-77
2023/06/24 10:44:44;;;;;;;;;;;27.20;90.60;;;;;;5091122;28;20734;-76
2023/06/24 10:47:10;;;;;;;;;;;27.20;90.10;;;;;;5089691;28;19920;-77
2023/06/24 10:49:35;;;;;;;;;;;27.30;90.20;;;;;;5093849;28;20269;-76
2023/06/24 10:52:01;;;;;;;;;;;27.50;89.60;;;;;;5076877;28;19932;-78
2023/06/24 10:54:27;;;;;;;;;;;27.30;90.00;;;;;;5093838;28;20010;-75
2023/06/24 10:56:53;;;;;;;;;;;27.10;90.20;;;;;;5093382;28;20456;-77
2023/06/24 10:59:18;;;;;;;;;;;27.10;89.90;;;;;;5094270;28;19920;-76
2023/06/24 11:01:53;;;;;;;;;;;27.00;88.50;;;;;;5093462;28;19962;-77
2023/06/24 11:04:19;;;;;;;;;;;26.90;89.80;;;;;;5093902;28;19951;-76
2023/06/24 11:07:01;;;;;;;;;;;27.00;90.60;;;;;;5093501;28;19989;-78
2023/06/24 11:09:26;;;;;;;;;;;27.10;90.20;;;;;;5093306;28;19967;-76
2023/06/24 11:11:52;;;;;;;;;;;27.40;90.00;;;;;;5076123;28;20012;-77
2023/06/24 11:14:19;;;;;;;;;;;27.60;89.40;;;;;;5093521;28;19920;-75
2023/06/24 11:16:45;;;;;;;;;;;27.90;89.60;;;;;;5093404;28;19916;-77
2023/06/24 11:19:10;;;;;;;;;;;28.20;89.80;;;;;;5126998;27;19923;-78
2023/06/24 11:21:36;;;;;;;;;;;28.70;89.40;;;;;;5093178;28;19990;-76
2023/06/24 11:24:02;;;;;;;;;;;29.10;87.50;;;;;;5076246;28;19959;-78
2023/06/24 11:26:28;;;;;;;;;;;29.40;87.30;;;;;;5076593;28;19919;-78
2023/06/24 11:28:53;;;;;;;;;;;29.60;83.80;;;;;;5092857;28;19931;-78
2023/06/24 11:31:23;;;;;;;;;;;29.40;84.90;;;;;;5127383;27;19961;-77
2023/06/24 11:33:49;;;;;;;;;;;29.20;84.60;;;;;;5093201;28;20288;-77
2023/06/24 11:36:18;;;;;;;;;;;29.00;84.30;;;;;;5092244;28;19973;-76
2023/06/24 11:38:47;;;;;;;;;;;28.70;85.50;;;;;;5092919;28;19923;-75
2023/06/24 11:41:13;;;;;;;;;;;28.50;85.60;;;;;;5092549;28;20335;-78
2023/06/24 11:43:45;;;;;;;;;;;28.20;86.20;;;;;;5092621;28;19965;-76
2023/06/24 11:46:21;;;;;;;;;;;28.00;87.20;;;;;;5092210;28;19967;-77
2023/06/24 11:48:46;;;;;;;;;;;27.90;87.40;;;;;;5127198;27;20011;-77
2023/06/24 11:51:15;;;;;;;;;;;28.10;87.40;;;;;;5092266;28;20539;-78
2023/06/24 11:53:51;;;;;;;;;;;28.10;87.00;;;;;;5092673;28;19931;-77
2023/06/24 11:56:16;;;;;;;;;;;28.00;87.20;;;;;;5092062;28;20377;-76
2023/06/24 11:58:43;;;;;;;;;;;28.20;87.80;;;;;;5092658;28;19919;-77
2023/06/24 12:01:09;;;;;;;;;;;28.50;85.60;;;;;;5091708;28;20037;-77
2023/06/24 12:03:34;;;;;;;;;;;28.70;83.80;;;;;;5092995;28;20364;-77
2023/06/24 12:06:00;;;;;;;;;;;29.00;82.20;;;;;;5076979;28;20643;-77
2023/06/24 12:08:25;;;;;;;;;;;29.00;80.80;;;;;;5093077;28;19924;-75
2023/06/24 12:10:51;;;;;;;;;;;29.10;79.70;;;;;;5075492;28;20288;-77
2023/06/24 12:13:17;;;;;;;;;;;29.20;79.70;;;;;;5091414;28;19924;-77
2023/06/24 12:15:42;;;;;;;;;;;29.50;81.60;;;;;;5091839;28;19981;-78
2023/06/24 12:18:08;;;;;;;;;;;30.20;78.60;;;;;;5092030;28;19920;-75
2023/06/24 12:20:36;;;;;;;;;;;30.40;76.20;;;;;;5074880;28;19951;-78
2023/06/24 12:23:03;;;;;;;;;;;30.20;76.70;;;;;;5092056;28;19943;-75
2023/06/24 12:25:29;;;;;;;;;;;30.00;76.80;;;;;;5092112;28;19920;-75
2023/06/24 12:27:54;;;;;;;;;;;29.80;76.20;;;;;;5092209;28;19946;-78
2023/06/24 12:30:21;;;;;;;;;;;29.80;76.60;;;;;;5092237;28;19962;-76
2023/06/24 12:32:46;;;;;;;;;;;29.90;76.30;;;;;;5092012;28;19923;-79
2023/06/24 12:35:12;;;;;;;;;;;29.80;76.20;;;;;;5091406;28;20271;-79
2023/06/24 12:37:38;;;;;;;;;;;29.60;75.90;;;;;;5091841;28;19916;-76
2023/06/24 12:40:04;;;;;;;;;;;29.50;76.40;;;;;;5074475;28;20369;-76
2023/06/24 12:42:30;;;;;;;;;;;29.40;75.70;;;;;;5091551;28;20403;-77
2023/06/24 12:44:55;;;;;;;;;;;29.60;76.10;;;;;;5092314;28;19920;-76
2023/06/24 12:47:21;;;;;;;;;;;29.90;75.30;;;;;;5090977;28;20242;-78
2023/06/24 12:49:47;;;;;;;;;;;30.10;73.90;;;;;;5091223;28;19962;-79
2023/06/24 12:52:13;;;;;;;;;;;30.30;74.10;;;;;;5091198;28;19934;-75
2023/06/24 12:54:39;;;;;;;;;;;30.70;74.30;;;;;;5074353;28;19928;-77
2023/06/24 12:57:04;;;;;;;;;;;30.90;73.50;;;;;;5091033;28;19981;-78
2023/06/24 12:59:30;;;;;;;;;;;30.80;72.40;;;;;;5091267;28;19916;-77
2023/06/24 13:01:55;;;;;;;;;;;30.80;73.40;;;;;;5074200;28;19942;-77
2023/06/24 13:04:22;;;;;;;;;;;30.90;73.30;;;;;;5091134;28;20014;-78
2023/06/24 13:06:48;;;;;;;;;;;31.20;73.60;;;;;;5091967;28;19920;-76
2023/06/24 13:09:14;;;;;;;;;;;31.30;72.30;;;;;;5090808;28;19943;-79
2023/06/24 13:11:40;;;;;;;;;;;31.60;73.70;;;;;;5091259;28;20277;-78
2023/06/24 13:14:06;;;;;;;;;;;32.20;73.00;;;;;;5090988;28;19920;-79
2023/06/24 13:16:31;;;;;;;;;;;32.20;71.20;;;;;;5091087;28;20384;-79
2023/06/24 13:18:57;;;;;;;;;;;32.20;71.50;;;;;;5092392;28;19920;-77
2023/06/24 13:21:22;;;;;;;;;;;32.50;71.70;;;;;;5091135;28;20372;-78
2023/06/24 13:23:48;;;;;;;;;;;32.50;70.70;;;;;;5091115;28;20008;-78
2023/06/24 13:26:14;;;;;;;;;;;32.20;69.30;;;;;;5091886;28;19940;-79
2023/06/24 13:28:39;;;;;;;;;;;31.90;69.30;;;;;;5090441;28;20254;-78
2023/06/24 13:31:05;;;;;;;;;;;31.40;69.50;;;;;;5090867;28;19920;-78
2023/06/24 13:33:31;;;;;;;;;;;30.90;69.50;;;;;;5090588;28;20377;-76
2023/06/24 13:35:57;;;;;;;;;;;30.30;70.60;;;;;;5090593;28;19927;-77
2023/06/24 13:38:22;;;;;;;;;;;30.00;71.90;;;;;;5090000;28;19920;-78
2023/06/24 13:40:48;;;;;;;;;;;29.90;71.90;;;;;;5074106;28;19924;-76
2023/06/24 13:43:13;;;;;;;;;;;29.90;72.40;;;;;;5089989;28;20376;-76
2023/06/24 13:45:39;;;;;;;;;;;30.10;72.50;;;;;;5090464;28;19919;-77
2023/06/24 13:48:05;;;;;;;;;;;30.50;73.10;;;;;;5073494;28;20362;-77
2023/06/24 13:50:30;;;;;;;;;;;30.60;71.70;;;;;;5090486;28;20296;-79
2023/06/24 13:52:56;;;;;;;;;;;30.20;71.70;;;;;;5090195;28;19924;-78
2023/06/24 13:55:21;;;;;;;;;;;29.70;71.90;;;;;;5073094;28;19969;-75
2023/06/24 13:57:47;;;;;;;;;;;29.40;72.60;;;;;;5090344;28;19916;-80
2023/06/24 14:00:13;;;;;;;;;;;29.20;74.40;;;;;;5089331;28;19920;-75
2023/06/24 14:02:39;;;;;;;;;;;29.10;74.60;;;;;;5090051;28;19916;-75
2023/06/24 14:05:04;;;;;;;;;;;29.10;73.60;;;;;;5089665;28;19957;-77
2023/06/24 14:07:30;;;;;;;;;;;28.90;73.80;;;;;;5089744;28;19982;-75
2023/06/24 14:09:55;;;;;;;;;;;28.50;74.00;;;;;;5090247;28;19919;-79
2023/06/24 14:12:21;;;;;;;;;;;28.60;75.60;;;;;;5090059;28;20292;-79